createdAt,value
2019-03-17T00:02:18.061Z,2.17
2019-03-17T00:04:47.275Z,1.87
2019-03-17T00:07:15.879Z,1.97
2019-03-17T00:09:44.307Z,1.70
2019-03-17T00:12:12.763Z,1.63
2019-03-17T00:14:41.199Z,1.60
2019-03-17T00:17:09.751Z,2.77
2019-03-17T00:19:38.239Z,1.60
2019-03-17T00:22:07.553Z,1.87
2019-03-17T00:24:36.006Z,1.60
2019-03-17T00:27:04.607Z,3.10
2019-03-17T00:29:33.051Z,1.73
2019-03-17T00:32:01.500Z,2.20
2019-03-17T00:34:29.950Z,2.53
2019-03-17T00:36:58.389Z,1.87
2019-03-17T00:39:26.890Z,1.57
2019-03-17T00:41:55.327Z,4.40
2019-03-17T00:44:23.767Z,1.37
2019-03-17T00:46:52.237Z,1.80
2019-03-17T00:49:20.670Z,2.23
2019-03-17T00:51:49.099Z,5.53
2019-03-17T00:54:17.560Z,2.63
2019-03-17T00:56:45.978Z,2.13
2019-03-17T00:59:14.447Z,1.93
2019-03-17T01:01:42.903Z,3.13
2019-03-17T01:04:11.355Z,2.33
2019-03-17T01:06:39.778Z,3.83
2019-03-17T01:09:08.310Z,1.80
2019-03-17T01:11:36.734Z,1.67
2019-03-17T01:14:05.258Z,1.50
2019-03-17T01:16:33.700Z,1.60
2019-03-17T01:19:02.169Z,1.70
2019-03-17T01:21:30.588Z,2.20
2019-03-17T01:23:59.048Z,1.87
2019-03-17T01:26:27.504Z,2.10
2019-03-17T01:28:55.954Z,2.10
2019-03-17T01:31:24.387Z,1.60
2019-03-17T01:33:52.925Z,2.17
2019-03-17T01:36:21.371Z,1.50
2019-03-17T01:38:49.954Z,2.53
2019-03-17T01:41:18.396Z,1.60
2019-03-17T01:43:46.872Z,1.50
2019-03-17T01:46:15.367Z,1.73
2019-03-17T01:48:43.809Z,2.00
2019-03-17T01:51:12.241Z,1.63
2019-03-17T01:53:40.712Z,1.63
2019-03-17T01:56:09.150Z,1.70
2019-03-17T01:58:37.617Z,1.63
2019-03-17T02:01:06.038Z,2.07
2019-03-17T02:03:34.494Z,2.97
2019-03-17T02:06:02.930Z,2.00
2019-03-17T02:08:31.376Z,1.70
2019-03-17T02:10:59.811Z,1.63
2019-03-17T02:13:28.255Z,1.47
2019-03-17T02:15:56.685Z,1.73
2019-03-17T02:18:25.132Z,1.57
2019-03-17T02:20:53.595Z,1.60
2019-03-17T02:23:22.027Z,1.50
2019-03-17T02:25:50.671Z,1.53
2019-03-17T02:28:19.111Z,1.40
2019-03-17T02:30:47.550Z,1.50
2019-03-17T02:33:16.068Z,2.27
2019-03-17T02:35:44.596Z,1.10
2019-03-17T02:38:13.117Z,2.20
2019-03-17T02:40:41.643Z,1.50
2019-03-17T02:43:10.091Z,1.20
2019-03-17T02:45:38.541Z,1.03
2019-03-17T02:48:06.969Z,1.30
2019-03-17T02:50:35.437Z,0.83
2019-03-17T02:53:03.856Z,1.13
2019-03-17T02:55:32.442Z,3.27
2019-03-17T02:58:00.884Z,0.90
2019-03-17T03:00:29.414Z,1.37
2019-03-17T03:02:57.922Z,1.00
2019-03-17T03:05:26.375Z,1.00
2019-03-17T03:07:54.827Z,1.10
2019-03-17T03:10:23.290Z,0.80
2019-03-17T03:12:51.802Z,1.77
2019-03-17T03:15:20.247Z,1.10
2019-03-17T03:17:48.779Z,1.30
2019-03-17T03:20:17.244Z,1.27
2019-03-17T03:22:45.671Z,1.33
2019-03-17T03:25:14.123Z,2.87
2019-03-17T03:27:42.629Z,1.10
2019-03-17T03:30:13.149Z,1.30
2019-03-17T03:32:41.618Z,1.27
2019-03-17T03:35:10.239Z,1.33
2019-03-17T03:37:38.881Z,2.10
2019-03-17T03:40:09.947Z,1.00
2019-03-17T03:42:38.387Z,1.03
2019-03-17T03:45:11.564Z,1.10
2019-03-17T03:47:40.088Z,1.77
2019-03-17T03:50:10.079Z,1.13
2019-03-17T03:52:38.661Z,1.30
2019-03-17T03:55:08.548Z,0.93
2019-03-17T03:57:37.137Z,1.30
2019-03-17T04:00:11.040Z,0.90
2019-03-17T04:02:39.630Z,0.90
2019-03-17T04:05:08.231Z,1.00
2019-03-17T04:07:36.740Z,1.10
2019-03-17T04:10:08.019Z,1.23
2019-03-17T04:12:36.537Z,1.10
2019-03-17T04:15:07.013Z,1.20
2019-03-17T04:17:35.470Z,1.20
2019-03-17T04:20:05.539Z,1.50
2019-03-17T04:22:34.030Z,1.50
2019-03-17T04:25:02.505Z,1.00
2019-03-17T04:27:30.947Z,1.23
2019-03-17T04:29:59.391Z,1.03
2019-03-17T04:32:27.827Z,0.87
2019-03-17T04:34:56.286Z,0.87
2019-03-17T04:37:24.826Z,1.30
2019-03-17T04:39:53.314Z,0.90
2019-03-17T04:42:21.802Z,1.30
2019-03-17T04:44:50.244Z,1.60
2019-03-17T04:47:18.686Z,1.00
2019-03-17T04:49:47.122Z,1.97
2019-03-17T04:52:15.566Z,1.00
2019-03-17T04:54:43.996Z,1.00
2019-03-17T04:57:12.451Z,1.53
2019-03-17T04:59:40.912Z,1.17
2019-03-17T05:02:09.384Z,1.00
2019-03-17T05:04:37.890Z,1.10
2019-03-17T05:07:06.338Z,1.10
2019-03-17T05:09:34.775Z,1.10
2019-03-17T05:12:03.332Z,0.70
2019-03-17T05:14:31.766Z,0.83
2019-03-17T05:17:00.199Z,0.87
2019-03-17T05:19:28.647Z,0.93
2019-03-17T05:21:57.149Z,0.80
2019-03-17T05:24:25.674Z,1.50
2019-03-17T05:26:54.110Z,1.03
2019-03-17T05:29:22.562Z,1.30
2019-03-17T05:31:51.002Z,1.13
2019-03-17T05:34:19.454Z,0.90
2019-03-17T05:36:47.881Z,0.80
2019-03-17T05:39:16.349Z,1.00
2019-03-17T05:41:45.874Z,1.37
2019-03-17T05:44:14.304Z,1.03
2019-03-17T05:46:42.741Z,1.00
2019-03-17T05:49:11.194Z,1.53
2019-03-17T05:51:39.627Z,1.10
2019-03-17T05:54:08.087Z,0.90
2019-03-17T05:56:36.527Z,1.13
2019-03-17T05:59:04.985Z,0.93
2019-03-17T06:01:33.415Z,0.97
2019-03-17T06:04:01.873Z,1.43
2019-03-17T06:06:30.467Z,0.97
2019-03-17T06:08:58.924Z,1.13
2019-03-17T06:11:27.343Z,1.57
2019-03-17T06:13:55.791Z,0.80
2019-03-17T06:16:24.237Z,1.20
2019-03-17T06:18:52.693Z,0.97
2019-03-17T06:21:21.122Z,1.10
2019-03-17T06:23:49.576Z,1.03
2019-03-17T06:26:18.010Z,0.80
2019-03-17T06:28:46.560Z,1.77
2019-03-17T06:31:15.067Z,2.87
2019-03-17T06:33:43.505Z,1.37
2019-03-17T06:36:11.941Z,1.43
2019-03-17T06:38:40.404Z,0.87
2019-03-17T06:41:08.854Z,1.13
2019-03-17T06:43:37.290Z,1.30
2019-03-17T06:46:05.758Z,1.63
2019-03-17T06:48:34.186Z,1.43
2019-03-17T06:51:02.645Z,1.27
2019-03-17T06:53:31.098Z,1.50
2019-03-17T06:55:59.562Z,1.20
2019-03-17T06:58:28.004Z,1.03
2019-03-17T07:00:56.453Z,1.87
2019-03-17T07:03:24.966Z,1.10
2019-03-17T07:05:53.432Z,1.67
2019-03-17T07:08:21.918Z,1.87
2019-03-17T07:10:50.420Z,1.13
2019-03-17T07:13:18.854Z,1.00
2019-03-17T07:15:47.316Z,1.73
2019-03-17T07:18:15.778Z,1.63
2019-03-17T07:20:44.294Z,0.93
2019-03-17T07:23:12.753Z,1.90
2019-03-17T07:25:41.268Z,0.93
2019-03-17T07:28:09.690Z,2.17
2019-03-17T07:30:38.157Z,1.60
2019-03-17T07:33:06.679Z,1.90
2019-03-17T07:35:35.388Z,2.57
2019-03-17T07:38:03.906Z,1.23
2019-03-17T07:40:32.366Z,1.80
2019-03-17T07:43:00.843Z,1.00
2019-03-17T07:45:29.293Z,1.20
2019-03-17T07:47:57.727Z,1.33
2019-03-17T07:50:26.189Z,1.23
2019-03-17T07:52:54.622Z,2.40
2019-03-17T07:55:23.085Z,1.07
2019-03-17T07:57:51.605Z,0.90
2019-03-17T08:00:31.287Z,0.90
2019-03-17T08:02:50.217Z,1.00
2019-03-17T08:05:18.657Z,1.80
2019-03-17T08:07:47.205Z,1.00
2019-03-17T08:10:16.507Z,1.53
2019-03-17T08:12:45.009Z,1.63
2019-03-17T08:15:14.390Z,2.80
2019-03-17T08:17:42.939Z,17.40
2019-03-17T08:20:12.024Z,2.83
2019-03-17T08:22:40.557Z,1.97
2019-03-17T08:25:10.148Z,1.77
2019-03-17T08:27:38.597Z,1.27
2019-03-17T08:30:12.866Z,2.57
2019-03-17T08:32:41.588Z,1.03
2019-03-17T08:35:10.543Z,1.10
2019-03-17T08:37:39.125Z,1.33
2019-03-17T08:40:10.677Z,1.00
2019-03-17T08:42:39.198Z,1.17
2019-03-17T08:45:09.974Z,1.73
2019-03-17T08:47:38.506Z,1.73
2019-03-17T08:50:09.698Z,1.07
2019-03-17T08:52:38.174Z,2.00
2019-03-17T08:55:07.452Z,2.83
2019-03-17T08:57:36.065Z,2.40
2019-03-17T09:00:12.779Z,1.90
2019-03-17T09:02:41.235Z,1.23
2019-03-17T09:05:09.861Z,1.43
2019-03-17T09:07:38.330Z,1.33
2019-03-17T09:10:14.558Z,2.30
2019-03-17T09:12:43.146Z,3.27
2019-03-17T09:15:11.724Z,8.87
2019-03-17T09:17:40.255Z,1.73
2019-03-17T09:20:11.139Z,2.43
2019-03-17T09:22:39.687Z,1.40
2019-03-17T09:25:10.066Z,4.07
2019-03-17T09:27:38.707Z,2.50
2019-03-17T09:30:10.283Z,1.70
2019-03-17T09:32:38.761Z,2.13
2019-03-17T09:35:09.152Z,1.80
2019-03-17T09:37:37.687Z,3.87
2019-03-17T09:40:12.175Z,2.70
2019-03-17T09:42:40.730Z,2.80
2019-03-17T09:45:13.005Z,4.80
2019-03-17T09:47:41.701Z,3.13
2019-03-17T09:50:12.959Z,3.70
2019-03-17T09:52:41.419Z,5.90
2019-03-17T09:55:10.216Z,3.63
2019-03-17T09:57:38.663Z,4.33
2019-03-17T10:00:17.877Z,6.37
2019-03-17T10:02:46.373Z,2.50
2019-03-17T10:05:14.918Z,6.07
2019-03-17T10:07:43.360Z,2.97
2019-03-17T10:10:15.799Z,7.67
2019-03-17T10:12:44.247Z,5.67
2019-03-17T10:15:15.793Z,5.37
2019-03-17T10:17:44.293Z,3.53
2019-03-17T10:20:20.009Z,6.50
2019-03-17T10:22:48.452Z,4.70
2019-03-17T10:25:17.059Z,3.63
2019-03-17T10:27:45.510Z,3.77
2019-03-17T10:30:18.736Z,8.40
2019-03-17T10:32:47.193Z,4.13
2019-03-17T10:35:15.636Z,3.83
2019-03-17T10:37:44.081Z,2.80
2019-03-17T10:40:14.372Z,4.50
2019-03-17T10:42:42.828Z,6.60
2019-03-17T10:45:12.323Z,9.27
2019-03-17T10:47:40.798Z,3.57
2019-03-17T10:50:12.050Z,5.53
2019-03-17T10:52:40.595Z,2.73
2019-03-17T10:55:10.059Z,5.50
2019-03-17T10:57:38.622Z,4.00
2019-03-17T11:00:10.159Z,5.77
2019-03-17T11:02:38.622Z,5.67
2019-03-17T11:05:07.518Z,6.10
2019-03-17T11:07:36.049Z,6.00
2019-03-17T11:10:06.812Z,5.67
2019-03-17T11:12:35.269Z,2.97
2019-03-17T11:15:06.321Z,7.77
2019-03-17T11:17:34.775Z,6.30
2019-03-17T11:20:03.785Z,6.90
2019-03-17T11:22:32.251Z,8.70
2019-03-17T11:25:00.699Z,5.70
2019-03-17T11:27:29.311Z,4.77
2019-03-17T11:29:57.775Z,5.87
2019-03-17T11:32:26.286Z,8.97
2019-03-17T11:34:54.780Z,6.33
2019-03-17T11:37:23.690Z,9.03
2019-03-17T11:39:52.307Z,4.40
2019-03-17T11:42:20.769Z,4.30
2019-03-17T11:44:49.220Z,3.50
2019-03-17T11:47:17.671Z,4.30
2019-03-17T11:49:46.354Z,4.80
2019-03-17T11:52:14.855Z,4.77
2019-03-17T11:54:43.363Z,7.57
2019-03-17T11:57:11.820Z,5.33
2019-03-17T11:59:40.284Z,6.00
2019-03-17T12:02:08.722Z,4.53
2019-03-17T12:04:37.173Z,3.70
2019-03-17T12:07:05.619Z,4.93
2019-03-17T12:09:34.080Z,5.17
2019-03-17T12:12:02.519Z,6.80
2019-03-17T12:14:30.978Z,3.97
2019-03-17T12:16:59.412Z,2.67
2019-03-17T12:19:27.882Z,1.97
2019-03-17T12:22:08.230Z,3.03
2019-03-17T12:24:26.512Z,3.20
2019-03-17T12:26:54.950Z,3.20
2019-03-17T12:29:23.412Z,4.40
2019-03-17T12:31:51.857Z,2.20
2019-03-17T12:34:28.053Z,4.87
2019-03-17T12:36:50.459Z,2.77
2019-03-17T12:39:18.922Z,2.67
2019-03-17T12:41:47.362Z,2.43
2019-03-17T12:44:15.809Z,0.80
2019-03-17T12:46:44.249Z,1.20
2019-03-17T12:49:12.714Z,1.20
2019-03-17T12:51:41.141Z,0.50
2019-03-17T12:54:09.605Z,0.70
2019-03-17T12:56:38.050Z,1.87
2019-03-17T12:59:06.514Z,4.20
2019-03-17T13:01:34.958Z,1.43
2019-03-17T13:04:03.428Z,1.13
2019-03-17T13:06:32.007Z,2.87
2019-03-17T13:09:01.207Z,0.63
2019-03-17T13:11:29.804Z,0.97
2019-03-17T13:13:59.144Z,0.80
2019-03-17T13:16:27.586Z,0.47
2019-03-17T13:18:56.031Z,0.60
2019-03-17T13:21:24.506Z,0.97
2019-03-17T13:23:53.014Z,0.60
2019-03-17T13:26:21.493Z,1.23
2019-03-17T13:28:49.935Z,1.27
2019-03-17T13:31:20.466Z,0.70
2019-03-17T13:33:48.607Z,0.57
2019-03-17T13:36:17.067Z,1.60
2019-03-17T13:38:45.551Z,0.97
2019-03-17T13:41:14.003Z,0.67
2019-03-17T13:43:42.453Z,0.67
2019-03-17T13:46:10.923Z,0.30
2019-03-17T13:48:39.369Z,0.50
2019-03-17T13:51:07.838Z,0.77
2019-03-17T13:53:36.323Z,0.50
2019-03-17T13:56:04.895Z,0.50
2019-03-17T13:58:33.351Z,1.40
2019-03-17T14:01:01.816Z,0.50
2019-03-17T14:03:30.333Z,1.00
2019-03-17T14:05:58.853Z,0.30
2019-03-17T14:08:27.299Z,1.10
2019-03-17T14:10:55.763Z,0.50
2019-03-17T14:13:24.196Z,0.60
2019-03-17T14:15:52.667Z,1.13
2019-03-17T14:18:21.141Z,1.03
2019-03-17T14:20:49.604Z,0.60
2019-03-17T14:23:18.051Z,0.73
2019-03-17T14:25:47.108Z,0.73
2019-03-17T14:28:15.627Z,0.80
2019-03-17T14:30:44.158Z,0.50
2019-03-17T14:33:12.593Z,0.60
2019-03-17T14:35:41.038Z,0.63
2019-03-17T14:38:09.490Z,0.80
2019-03-17T14:40:37.956Z,3.03
2019-03-17T14:43:06.470Z,0.80
2019-03-17T14:45:34.914Z,1.23
2019-03-17T14:48:03.444Z,0.73
2019-03-17T14:50:31.945Z,1.03
2019-03-17T14:53:00.970Z,2.23
2019-03-17T14:55:29.518Z,0.87
2019-03-17T14:57:58.348Z,1.00
2019-03-17T15:00:26.848Z,1.37
2019-03-17T15:02:55.376Z,1.00
2019-03-17T15:05:25.324Z,0.97
2019-03-17T15:07:54.037Z,0.93
2019-03-17T15:10:25.984Z,3.20
2019-03-17T15:12:54.427Z,1.43
2019-03-17T15:15:23.549Z,1.40
2019-03-17T15:17:52.070Z,1.17
2019-03-17T15:20:24.579Z,0.80
2019-03-17T15:22:53.101Z,1.30
2019-03-17T15:25:21.537Z,1.53
2019-03-17T15:27:49.996Z,1.03
2019-03-17T15:30:28.535Z,1.00
2019-03-17T15:32:57.078Z,1.87
2019-03-17T15:35:25.615Z,1.63
2019-03-17T15:37:54.217Z,1.23
2019-03-17T15:40:22.805Z,1.10
2019-03-17T15:42:51.331Z,0.90
2019-03-17T15:45:23.533Z,1.50
2019-03-17T15:47:51.988Z,0.83
2019-03-17T15:50:23.511Z,2.67
2019-03-17T15:52:52.051Z,1.13
2019-03-17T15:55:20.569Z,1.73
2019-03-17T15:57:49.019Z,0.93
2019-03-17T16:00:26.285Z,0.80
2019-03-17T16:02:54.963Z,0.70
2019-03-17T16:05:23.440Z,0.70
2019-03-17T16:07:52.228Z,0.93
2019-03-17T16:10:25.966Z,1.30
2019-03-17T16:12:54.430Z,1.10
2019-03-17T16:15:22.939Z,1.27
2019-03-17T16:17:51.453Z,2.43
2019-03-17T16:20:21.046Z,1.00
2019-03-17T16:22:49.571Z,1.90
2019-03-17T16:25:25.215Z,1.00
2019-03-17T16:27:53.750Z,1.03
2019-03-17T16:30:27.246Z,0.93
2019-03-17T16:32:55.760Z,1.53
2019-03-17T16:35:24.226Z,1.37
2019-03-17T16:37:52.662Z,1.77
2019-03-17T16:40:25.389Z,1.67
2019-03-17T16:42:54.254Z,1.13
2019-03-17T16:45:22.747Z,1.83
2019-03-17T16:47:51.199Z,1.57
2019-03-17T16:50:23.626Z,1.10
2019-03-17T16:52:52.123Z,3.10
2019-03-17T16:55:20.645Z,1.30
2019-03-17T16:57:49.151Z,1.20
2019-03-17T17:00:23.369Z,1.63
2019-03-17T17:02:51.870Z,2.00
2019-03-17T17:05:22.329Z,1.27
2019-03-17T17:07:50.856Z,1.27
2019-03-17T17:10:28.750Z,1.17
2019-03-17T17:12:57.285Z,0.87
2019-03-17T17:15:28.811Z,0.90
2019-03-17T17:17:57.274Z,0.63
2019-03-17T17:20:28.350Z,0.70
2019-03-17T17:22:56.811Z,0.93
2019-03-17T17:25:25.276Z,1.13
2019-03-17T17:27:53.723Z,1.10
2019-03-17T17:30:22.239Z,1.87
2019-03-17T17:32:50.693Z,1.37
2019-03-17T17:35:19.299Z,1.50
2019-03-17T17:37:47.752Z,1.17
2019-03-17T17:40:18.151Z,1.13
2019-03-17T17:42:46.633Z,0.90
2019-03-17T17:45:22.267Z,1.30
2019-03-17T17:47:50.736Z,1.17
2019-03-17T17:50:20.511Z,1.20
2019-03-17T17:52:48.954Z,1.30
2019-03-17T17:55:17.429Z,1.57
2019-03-17T17:57:45.877Z,1.70
2019-03-17T18:00:31.946Z,1.50
2019-03-17T18:03:00.410Z,1.20
2019-03-17T18:05:28.929Z,1.53
2019-03-17T18:07:57.459Z,1.50
2019-03-17T18:10:25.894Z,2.70
2019-03-17T18:12:54.388Z,1.57
2019-03-17T18:15:24.212Z,1.60
2019-03-17T18:17:52.720Z,1.73
2019-03-17T18:20:21.212Z,2.33
2019-03-17T18:22:49.970Z,1.63
2019-03-17T18:25:22.106Z,2.07
2019-03-17T18:27:50.646Z,2.43
2019-03-17T18:30:26.546Z,1.73
2019-03-17T18:32:55.068Z,2.00
2019-03-17T18:35:23.599Z,1.93
2019-03-17T18:37:52.161Z,3.07
2019-03-17T18:40:21.586Z,1.97
2019-03-17T18:42:50.208Z,2.47
2019-03-17T18:45:20.644Z,2.30
2019-03-17T18:47:49.095Z,2.40
2019-03-17T18:50:20.421Z,2.83
2019-03-17T18:52:48.059Z,3.33
2019-03-17T18:55:16.896Z,3.97
2019-03-17T18:57:45.428Z,2.90
2019-03-17T19:00:16.146Z,2.60
2019-03-17T19:02:44.693Z,3.23
2019-03-17T19:05:14.680Z,3.47
2019-03-17T19:07:43.305Z,3.23
2019-03-17T19:10:14.160Z,3.97
2019-03-17T19:12:45.737Z,2.87
2019-03-17T19:15:17.009Z,3.47
2019-03-17T19:17:45.576Z,3.80
2019-03-17T19:20:15.444Z,2.60
2019-03-17T19:22:44.036Z,3.27
2019-03-17T19:25:14.618Z,2.50
2019-03-17T19:27:43.191Z,3.73
2019-03-17T19:30:16.574Z,2.50
2019-03-17T19:32:45.553Z,3.87
2019-03-17T19:35:14.395Z,2.57
2019-03-17T19:37:43.034Z,2.63
2019-03-17T19:40:19.615Z,3.13
2019-03-17T19:42:58.142Z,1.87
2019-03-17T19:45:18.306Z,1.87
2019-03-17T19:47:46.776Z,2.30
2019-03-17T19:50:19.526Z,3.30
2019-03-17T19:52:48.084Z,2.43
2019-03-17T19:55:16.563Z,2.27
2019-03-17T19:57:45.069Z,2.40
2019-03-17T20:00:17.205Z,2.80
2019-03-17T20:02:47.409Z,2.87
2019-03-17T20:05:16.181Z,4.00
2019-03-17T20:07:44.745Z,3.33
2019-03-17T20:10:27.318Z,3.20
2019-03-17T20:12:55.772Z,3.47
2019-03-17T20:15:24.228Z,3.53
2019-03-17T20:17:53.303Z,2.53
2019-03-17T20:20:21.795Z,2.60
2019-03-17T20:22:50.261Z,3.53
2019-03-17T20:25:18.714Z,3.97
2019-03-17T20:27:47.167Z,3.23
2019-03-17T20:30:18.887Z,5.57
2019-03-17T20:32:47.526Z,3.87
2019-03-17T20:35:16.070Z,3.50
2019-03-17T20:37:44.768Z,3.10
2019-03-17T20:40:20.751Z,3.30
2019-03-17T20:42:49.246Z,3.10
2019-03-17T20:45:20.429Z,3.53
2019-03-17T20:47:47.963Z,2.63
2019-03-17T20:50:19.888Z,2.33
2019-03-17T20:52:48.376Z,2.30
2019-03-17T20:55:16.905Z,2.07
2019-03-17T20:57:45.504Z,2.27
2019-03-17T21:00:17.530Z,2.30
2019-03-17T21:02:45.984Z,3.37
2019-03-17T21:05:14.600Z,3.27
2019-03-17T21:07:43.291Z,2.83
2019-03-17T21:10:14.829Z,2.60
2019-03-17T21:12:43.347Z,1.67
2019-03-17T21:15:17.936Z,2.17
2019-03-17T21:17:46.442Z,1.50
2019-03-17T21:20:20.531Z,1.33
2019-03-17T21:22:48.974Z,1.80
2019-03-17T21:25:17.426Z,3.50
2019-03-17T21:27:46.021Z,1.50
2019-03-17T21:30:29.299Z,2.10
2019-03-17T21:32:57.737Z,1.23
2019-03-17T21:35:26.283Z,1.37
2019-03-17T21:37:54.748Z,1.30
2019-03-17T21:40:23.422Z,1.13
2019-03-17T21:42:51.860Z,1.17
2019-03-17T21:45:20.384Z,1.23
2019-03-17T21:47:48.820Z,1.10
2019-03-17T21:50:21.028Z,1.13
2019-03-17T21:52:49.478Z,1.10
2019-03-17T21:55:17.991Z,1.70
2019-03-17T21:57:46.663Z,1.10
2019-03-17T22:00:18.256Z,1.10
2019-03-17T22:02:46.714Z,1.17
2019-03-17T22:05:16.708Z,1.50
2019-03-17T22:07:50.071Z,1.33
2019-03-17T22:10:17.513Z,2.23
2019-03-17T22:12:45.943Z,1.37
2019-03-17T22:15:15.344Z,0.97
2019-03-17T22:17:43.876Z,2.70
2019-03-17T22:20:13.738Z,1.30
2019-03-17T22:22:42.314Z,1.40
2019-03-17T22:25:11.810Z,1.40
2019-03-17T22:27:40.320Z,1.77
2019-03-17T22:30:19.784Z,2.50
2019-03-17T22:32:48.388Z,1.30
2019-03-17T22:35:16.824Z,1.73
2019-03-17T22:37:45.274Z,1.60
2019-03-17T22:40:14.648Z,1.50
2019-03-17T22:42:43.554Z,3.33
2019-03-17T22:45:15.639Z,1.93
2019-03-17T22:47:44.251Z,3.03
2019-03-17T22:50:17.703Z,1.30
2019-03-17T22:52:46.350Z,1.30
2019-03-17T22:55:14.782Z,1.37
2019-03-17T22:57:43.296Z,1.60
2019-03-17T23:00:35.729Z,1.70
2019-03-17T23:03:05.111Z,1.50
2019-03-17T23:05:33.547Z,2.13
2019-03-17T23:08:02.067Z,1.33
2019-03-17T23:10:30.575Z,2.10
2019-03-17T23:13:01.929Z,1.77
2019-03-17T23:15:30.388Z,2.23
2019-03-17T23:17:58.907Z,2.30
2019-03-17T23:20:27.398Z,2.40
2019-03-17T23:22:55.867Z,1.77
2019-03-17T23:25:24.486Z,1.70
2019-03-17T23:27:52.935Z,2.60
2019-03-17T23:30:22.084Z,3.20
2019-03-17T23:32:50.543Z,3.23
2019-03-17T23:35:18.972Z,2.13
2019-03-17T23:37:47.518Z,2.00
2019-03-17T23:40:16.930Z,2.03
2019-03-17T23:42:45.568Z,2.20
2019-03-17T23:45:14.189Z,2.10
2019-03-17T23:47:42.705Z,2.20
2019-03-17T23:50:13.083Z,2.50
2019-03-17T23:52:41.509Z,2.13
2019-03-17T23:55:14.700Z,3.47
2019-03-17T23:57:43.145Z,2.20
